sensor_id;sensor_type;location;lat;lon;timestamp;pressure;altitude;pressure_sealevel;temperature;humidity
56084;BME280;41958;52.416;13.428;2023-02-13T00:02:23;103085.63;;;7.74;100.00
56084;BME280;41958;52.416;13.428;2023-02-13T00:04:48;103102.34;;;7.79;100.00
56084;BME280;41958;52.416;13.428;2023-02-13T00:07:13;103093.19;;;7.79;100.00
56084;BME280;41958;52.416;13.428;2023-02-13T00:09:39;103103.19;;;7.80;100.00
56084;BME280;41958;52.416;13.428;2023-02-13T00:12:06;103107.66;;;7.86;100.00
56084;BME280;41958;52.416;13.428;2023-02-13T00:14:37;103109.31;;;7.82;100.00
56084;BME280;41958;52.416;13.428;2023-02-13T00:17:03;103115.16;;;7.85;100.00
56084;BME280;41958;52.416;13.428;2023-02-13T00:19:28;103104.03;;;7.85;100.00
56084;BME280;41958;52.416;13.428;2023-02-13T00:21:53;103108.19;;;7.78;100.00
56084;BME280;41958;52.416;13.428;2023-02-13T00:24:19;103101.50;;;7.73;100.00
56084;BME280;41958;52.416;13.428;2023-02-13T00:26:44;103105.13;;;7.79;100.00
56084;BME280;41958;52.416;13.428;2023-02-13T00:29:09;103113.78;;;7.88;100.00
56084;BME280;41958;52.416;13.428;2023-02-13T00:31:34;103099.59;;;7.84;100.00
56084;BME280;41958;52.416;13.428;2023-02-13T00:34:00;103109.94;;;7.99;100.00
56084;BME280;41958;52.416;13.428;2023-02-13T00:36:25;103107.41;;;7.87;100.00
56084;BME280;41958;52.416;13.428;2023-02-13T00:38:50;103111.00;;;7.83;100.00
56084;BME280;41958;52.416;13.428;2023-02-13T00:41:17;103105.44;;;7.88;100.00
56084;BME280;41958;52.416;13.428;2023-02-13T00:43:43;103109.06;;;7.83;100.00
56084;BME280;41958;52.416;13.428;2023-02-13T00:46:09;103105.97;;;7.80;100.00
56084;BME280;41958;52.416;13.428;2023-02-13T00:48:35;103099.88;;;7.83;100.00
56084;BME280;41958;52.416;13.428;2023-02-13T00:51:00;103105.13;;;7.79;100.00
56084;BME280;41958;52.416;13.428;2023-02-13T00:53:26;103104.56;;;7.77;100.00
56084;BME280;41958;52.416;13.428;2023-02-13T00:55:52;103103.69;;;7.66;100.00
56084;BME280;41958;52.416;13.428;2023-02-13T00:58:18;103102.63;;;7.78;100.00
56084;BME280;41958;52.416;13.428;2023-02-13T01:00:44;103095.34;;;7.71;100.00
56084;BME280;41958;52.416;13.428;2023-02-13T01:03:14;103100.66;;;7.68;100.00
56084;BME280;41958;52.416;13.428;2023-02-13T01:05:39;103101.72;;;7.62;100.00
56084;BME280;41958;52.416;13.428;2023-02-13T01:08:05;103107.84;;;7.64;100.00
56084;BME280;41958;52.416;13.428;2023-02-13T01:10:30;103112.00;;;7.56;100.00
56084;BME280;41958;52.416;13.428;2023-02-13T01:12:55;103115.63;;;7.62;100.00
56084;BME280;41958;52.416;13.428;2023-02-13T01:15:21;103109.25;;;7.61;100.00
56084;BME280;41958;52.416;13.428;2023-02-13T01:17:46;103114.22;;;7.59;100.00
56084;BME280;41958;52.416;13.428;2023-02-13T01:20:12;103111.19;;;7.66;100.00
56084;BME280;41958;52.416;13.428;2023-02-13T01:22:38;103106.47;;;7.66;100.00
56084;BME280;41958;52.416;13.428;2023-02-13T01:25:04;103108.13;;;7.57;100.00
56084;BME280;41958;52.416;13.428;2023-02-13T01:27:30;103112.28;;;7.54;100.00
56084;BME280;41958;52.416;13.428;2023-02-13T01:29:56;103107.31;;;7.67;100.00
56084;BME280;41958;52.416;13.428;2023-02-13T01:32:22;103105.59;;;7.60;100.00
56084;BME280;41958;52.416;13.428;2023-02-13T01:34:47;103113.66;;;7.52;100.00
56084;BME280;41958;52.416;13.428;2023-02-13T01:37:13;103106.41;;;7.51;100.00
56084;BME280;41958;52.416;13.428;2023-02-13T01:39:38;103110.56;;;7.48;100.00
56084;BME280;41958;52.416;13.428;2023-02-13T01:42:04;103101.09;;;7.44;100.00
56084;BME280;41958;52.416;13.428;2023-02-13T01:44:54;103103.31;;;7.47;100.00
56084;BME280;41958;52.416;13.428;2023-02-13T01:47:25;103098.56;;;7.42;100.00
56084;BME280;41958;52.416;13.428;2023-02-13T01:49:58;103109.69;;;7.42;100.00
56084;BME280;41958;52.416;13.428;2023-02-13T01:52:26;103095.22;;;7.35;100.00
56084;BME280;41958;52.416;13.428;2023-02-13T01:54:52;103108.56;;;7.38;100.00
56084;BME280;41958;52.416;13.428;2023-02-13T01:57:20;103097.38;;;7.28;100.00
56084;BME280;41958;52.416;13.428;2023-02-13T02:02:18;103097.41;;;7.33;100.00
56084;BME280;41958;52.416;13.428;2023-02-13T02:04:45;103097.41;;;7.33;100.00
56084;BME280;41958;52.416;13.428;2023-02-13T02:07:14;103090.44;;;7.31;100.00
56084;BME280;41958;52.416;13.428;2023-02-13T02:09:42;103091.28;;;7.36;100.00
56084;BME280;41958;52.416;13.428;2023-02-13T02:12:35;103094.63;;;7.33;100.00
56084;BME280;41958;52.416;13.428;2023-02-13T02:15:04;103092.94;;;7.32;100.00
56084;BME280;41958;52.416;13.428;2023-02-13T02:17:29;103102.69;;;7.35;100.00
56084;BME280;41958;52.416;13.428;2023-02-13T02:20:25;103094.06;;;7.36;100.00
56084;BME280;41958;52.416;13.428;2023-02-13T02:23:23;103103.56;;;7.35;100.00
56084;BME280;41958;52.416;13.428;2023-02-13T02:31:46;103107.09;;;7.25;100.00
56084;BME280;41958;52.416;13.428;2023-02-13T02:34:32;103111.00;;;7.30;100.00
56084;BME280;41958;52.416;13.428;2023-02-13T02:37:18;103103.22;;;7.26;100.00
56084;BME280;41958;52.416;13.428;2023-02-13T02:45:52;103104.81;;;7.17;100.00
56084;BME280;41958;52.416;13.428;2023-02-13T02:48:27;103108.72;;;7.16;100.00
56084;BME280;41958;52.416;13.428;2023-02-13T02:51:38;103113.16;;;7.17;100.00
56084;BME280;41958;52.416;13.428;2023-02-13T02:54:10;103115.69;;;7.24;100.00
56084;BME280;41958;52.416;13.428;2023-02-13T02:57:02;103100.09;;;7.18;100.00
56084;BME280;41958;52.416;13.428;2023-02-13T02:59:31;103117.06;;;7.21;100.00
56084;BME280;41958;52.416;13.428;2023-02-13T03:02:16;103109.84;;;7.20;100.00
56084;BME280;41958;52.416;13.428;2023-02-13T03:05:01;103112.06;;;7.18;100.00
56084;BME280;41958;52.416;13.428;2023-02-13T03:07:45;103118.44;;;7.19;100.00
56084;BME280;41958;52.416;13.428;2023-02-13T03:10:15;103113.44;;;7.16;100.00
56084;BME280;41958;52.416;13.428;2023-02-13T03:13:09;103119.03;;;7.21;100.00
56084;BME280;41958;52.416;13.428;2023-02-13T03:15:45;103098.06;;;7.03;100.00
56084;BME280;41958;52.416;13.428;2023-02-13T03:18:31;103104.81;;;7.17;100.00
56084;BME280;41958;52.416;13.428;2023-02-13T03:27:44;103112.56;;;7.10;100.00
56084;BME280;41958;52.416;13.428;2023-02-13T03:30:55;103107.81;;;7.11;100.00
56084;BME280;41958;52.416;13.428;2023-02-13T03:36:30;103113.09;;;7.07;100.00
56084;BME280;41958;52.416;13.428;2023-02-13T03:39:38;103107.81;;;7.05;100.00
56084;BME280;41958;52.416;13.428;2023-02-13T03:42:22;103113.09;;;7.07;100.00
56084;BME280;41958;52.416;13.428;2023-02-13T03:44:56;103114.75;;;7.08;100.00
56084;BME280;41958;52.416;13.428;2023-02-13T03:47:44;103096.13;;;7.03;100.00
56084;BME280;41958;52.416;13.428;2023-02-13T03:50:12;103103.91;;;7.06;100.00
56084;BME280;41958;52.416;13.428;2023-02-13T03:53:01;103097.16;;;6.97;100.00
56084;BME280;41958;52.416;13.428;2023-02-13T03:55:36;103099.44;;;7.00;100.00
56084;BME280;41958;52.416;13.428;2023-02-13T03:58:32;103100.84;;;7.03;100.00
56084;BME280;41958;52.416;13.428;2023-02-13T04:01:19;103104.72;;;7.02;100.00
56084;BME280;41958;52.416;13.428;2023-02-13T04:03:51;103109.47;;;7.01;100.00
56084;BME280;41958;52.416;13.428;2023-02-13T04:06:28;103099.44;;;7.00;100.00
56084;BME280;41958;52.416;13.428;2023-02-13T04:08:55;103102.50;;;7.04;100.00
56084;BME280;41958;52.416;13.428;2023-02-13T04:11:25;103097.22;;;7.02;100.00
56084;BME280;41958;52.416;13.428;2023-02-13T04:16:29;103097.47;;;7.01;100.00
56084;BME280;41958;52.416;13.428;2023-02-13T04:18:56;103096.94;;;6.99;100.00
56084;BME280;41958;52.416;13.428;2023-02-13T04:21:22;103100.50;;;6.94;100.00
56084;BME280;41958;52.416;13.428;2023-02-13T04:23:48;103106.06;;;6.94;100.00
56084;BME280;41958;52.416;13.428;2023-02-13T04:26:17;103089.09;;;6.90;100.00
56084;BME280;41958;52.416;13.428;2023-02-13T04:28:43;103091.88;;;6.90;100.00
56084;BME280;41958;52.416;13.428;2023-02-13T04:31:09;103093.22;;;6.88;100.00
56084;BME280;41958;52.416;13.428;2023-02-13T04:33:34;103094.66;;;6.90;100.00
56084;BME280;41958;52.416;13.428;2023-02-13T04:35:59;103101.34;;;6.95;100.00
56084;BME280;41958;52.416;13.428;2023-02-13T04:38:24;103084.66;;;6.95;100.00
56084;BME280;41958;52.416;13.428;2023-02-13T04:40:50;103084.91;;;6.93;100.00
56084;BME280;41958;52.416;13.428;2023-02-13T04:43:15;103084.34;;;6.91;100.00
56084;BME280;41958;52.416;13.428;2023-02-13T04:45:40;103081.53;;;6.86;100.00
56084;BME280;41958;52.416;13.428;2023-02-13T04:48:05;103088.50;;;6.88;100.00
56084;BME280;41958;52.416;13.428;2023-02-13T04:50:31;103086.81;;;6.87;100.00
56084;BME280;41958;52.416;13.428;2023-02-13T04:52:56;103084.91;;;6.88;100.00
56084;BME280;41958;52.416;13.428;2023-02-13T04:55:26;103081.25;;;6.87;100.00
56084;BME280;41958;52.416;13.428;2023-02-13T04:57:53;103079.34;;;6.88;100.00
56084;BME280;41958;52.416;13.428;2023-02-13T05:00:19;103077.88;;;6.80;100.00
56084;BME280;41958;52.416;13.428;2023-02-13T05:02:45;103063.94;;;6.75;100.00
56084;BME280;41958;52.416;13.428;2023-02-13T05:05:10;103079.56;;;6.81;100.00
56084;BME280;41958;52.416;13.428;2023-02-13T05:07:35;103079.84;;;6.80;100.00
56084;BME280;41958;52.416;13.428;2023-02-13T05:10:01;103077.88;;;6.80;100.00
56084;BME280;41958;52.416;13.428;2023-02-13T05:12:26;103077.88;;;6.80;100.00
56084;BME280;41958;52.416;13.428;2023-02-13T05:14:51;103085.69;;;6.83;100.00
56084;BME280;41958;52.416;13.428;2023-02-13T05:17:16;103088.72;;;6.82;100.00
56084;BME280;41958;52.416;13.428;2023-02-13T05:19:42;103086.22;;;6.80;100.00
56084;BME280;41958;52.416;13.428;2023-02-13T05:22:08;103083.44;;;6.80;100.00
56084;BME280;41958;52.416;13.428;2023-02-13T05:24:53;103091.19;;;6.78;100.00
56084;BME280;41958;52.416;13.428;2023-02-13T05:27:18;103092.88;;;6.79;100.00
56084;BME280;41958;52.416;13.428;2023-02-13T05:29:43;103093.19;;;6.83;100.00
56084;BME280;41958;52.416;13.428;2023-02-13T05:32:09;103090.38;;;6.78;100.00
56084;BME280;41958;52.416;13.428;2023-02-13T05:34:34;103084.81;;;6.78;100.00
56084;BME280;41958;52.416;13.428;2023-02-13T05:36:59;103092.81;;;6.69;100.00
56084;BME280;41958;52.416;13.428;2023-02-13T05:39:25;103096.19;;;6.76;100.00
56084;BME280;41958;52.416;13.428;2023-02-13T05:41:50;103089.81;;;6.81;100.00
56084;BME280;41958;52.416;13.428;2023-02-13T05:44:15;103092.09;;;6.89;100.00
56084;BME280;41958;52.416;13.428;2023-02-13T05:46:41;103094.06;;;6.88;100.00
56084;BME280;41958;52.416;13.428;2023-02-13T05:49:08;103099.63;;;6.88;100.00
56084;BME280;41958;52.416;13.428;2023-02-13T05:51:34;103101.84;;;6.86;100.00
56084;BME280;41958;52.416;13.428;2023-02-13T05:53:59;103097.06;;;6.82;100.00
56084;BME280;41958;52.416;13.428;2023-02-13T05:56:25;103112.38;;;6.84;100.00
56084;BME280;41958;52.416;13.428;2023-02-13T05:58:54;103110.13;;;6.81;100.00
56084;BME280;41958;52.416;13.428;2023-02-13T06:01:20;103104.31;;;6.83;100.00
56084;BME280;41958;52.416;13.428;2023-02-13T06:03:46;103108.19;;;6.82;100.00
56084;BME280;41958;52.416;13.428;2023-02-13T06:06:12;103108.19;;;6.82;100.00
56084;BME280;41958;52.416;13.428;2023-02-13T06:08:37;103113.75;;;6.82;100.00
56084;BME280;41958;52.416;13.428;2023-02-13T06:11:02;103116.25;;;6.83;99.78
56084;BME280;41958;52.416;13.428;2023-02-13T06:13:28;103105.69;;;6.80;100.00
56084;BME280;41958;52.416;13.428;2023-02-13T06:15:53;103114.00;;;6.80;100.00
56084;BME280;41958;52.416;13.428;2023-02-13T06:18:18;103126.50;;;6.78;99.41
56084;BME280;41958;52.416;13.428;2023-02-13T06:20:44;103127.91;;;6.80;99.40
56084;BME280;41958;52.416;13.428;2023-02-13T06:23:09;103125.66;;;6.77;99.91
56084;BME280;41958;52.416;13.428;2023-02-13T06:25:35;103118.97;;;6.73;99.75
56084;BME280;41958;52.416;13.428;2023-02-13T06:28:01;103126.19;;;6.74;98.87
56084;BME280;41958;52.416;13.428;2023-02-13T06:30:26;103124.25;;;6.74;98.50
56084;BME280;41958;52.416;13.428;2023-02-13T06:32:51;103126.50;;;6.78;99.28
56084;BME280;41958;52.416;13.428;2023-02-13T06:35:17;103127.31;;;6.78;99.06
56084;BME280;41958;52.416;13.428;2023-02-13T06:37:42;103133.75;;;6.79;99.19
56084;BME280;41958;52.416;13.428;2023-02-13T06:40:08;103127.59;;;6.77;99.45
56084;BME280;41958;52.416;13.428;2023-02-13T06:42:35;103128.41;;;6.72;99.69
56084;BME280;41958;52.416;13.428;2023-02-13T06:45:00;103134.50;;;6.69;99.81
56084;BME280;41958;52.416;13.428;2023-02-13T06:47:25;103138.09;;;6.69;100.00
56084;BME280;41958;52.416;13.428;2023-02-13T06:49:50;103123.88;;;6.66;100.00
56084;BME280;41958;52.416;13.428;2023-02-13T06:52:16;103135.00;;;6.66;100.00
56084;BME280;41958;52.416;13.428;2023-02-13T06:54:41;103139.78;;;6.70;100.00
56084;BME280;41958;52.416;13.428;2023-02-13T06:57:06;103132.28;;;6.71;100.00
56084;BME280;41958;52.416;13.428;2023-02-13T06:59:31;103139.50;;;6.72;100.00
56084;BME280;41958;52.416;13.428;2023-02-13T07:01:57;103143.94;;;6.68;100.00
56084;BME280;41958;52.416;13.428;2023-02-13T07:04:22;103144.75;;;6.68;100.00
56084;BME280;41958;52.416;13.428;2023-02-13T07:06:47;103150.31;;;6.68;100.00
56084;BME280;41958;52.416;13.428;2023-02-13T07:09:12;103146.75;;;6.73;100.00
56084;BME280;41958;52.416;13.428;2023-02-13T07:11:38;103146.44;;;6.69;100.00
56084;BME280;41958;52.416;13.428;2023-02-13T07:14:06;103145.91;;;6.72;100.00
56084;BME280;41958;52.416;13.428;2023-02-13T07:16:31;103147.03;;;6.77;100.00
56084;BME280;41958;52.416;13.428;2023-02-13T07:18:56;103140.34;;;6.72;100.00
56084;BME280;41958;52.416;13.428;2023-02-13T07:21:21;103145.94;;;6.78;100.00
56084;BME280;41958;52.416;13.428;2023-02-13T07:23:46;103152.66;;;6.82;100.00
56084;BME280;41958;52.416;13.428;2023-02-13T07:26:12;103149.53;;;6.73;100.00
56084;BME280;41958;52.416;13.428;2023-02-13T07:28:37;103143.50;;;6.81;100.00
56084;BME280;41958;52.416;13.428;2023-02-13T07:31:03;103145.72;;;6.84;100.00
56084;BME280;41958;52.416;13.428;2023-02-13T07:33:30;103149.94;;;6.87;100.00
56084;BME280;41958;52.416;13.428;2023-02-13T07:35:55;103151.28;;;6.84;100.00
56084;BME280;41958;52.416;13.428;2023-02-13T07:38:20;103147.69;;;6.89;100.00
56084;BME280;41958;52.416;13.428;2023-02-13T07:40:45;103150.47;;;6.89;100.00
56084;BME280;41958;52.416;13.428;2023-02-13T07:43:12;103142.13;;;6.89;100.00
56084;BME280;41958;52.416;13.428;2023-02-13T07:45:37;103150.53;;;6.94;100.00
56084;BME280;41958;52.416;13.428;2023-02-13T07:48:03;103146.66;;;6.95;100.00
56084;BME280;41958;52.416;13.428;2023-02-13T07:50:28;103153.94;;;7.01;100.00
56084;BME280;41958;52.416;13.428;2023-02-13T07:52:57;103156.44;;;7.03;100.00
56084;BME280;41958;52.416;13.428;2023-02-13T07:55:24;103159.00;;;7.09;100.00
56084;BME280;41958;52.416;13.428;2023-02-13T07:57:50;103155.09;;;7.11;100.00
56084;BME280;41958;52.416;13.428;2023-02-13T08:00:16;103154.50;;;7.03;100.00
56084;BME280;41958;52.416;13.428;2023-02-13T08:02:42;103159.00;;;7.09;100.00
56084;BME280;41958;52.416;13.428;2023-02-13T08:05:07;103157.31;;;7.08;100.00
56084;BME280;41958;52.416;13.428;2023-02-13T08:07:33;103162.63;;;7.10;100.00
56084;BME280;41958;52.416;13.428;2023-02-13T08:09:58;103156.22;;;7.09;100.00
56084;BME280;41958;52.416;13.428;2023-02-13T08:12:43;103162.34;;;7.12;100.00
56084;BME280;41958;52.416;13.428;2023-02-13T08:15:13;103164.06;;;7.18;100.00
56084;BME280;41958;52.416;13.428;2023-02-13T08:17:39;103165.22;;;7.22;100.00
56084;BME280;41958;52.416;13.428;2023-02-13T08:20:05;103175.75;;;7.20;100.00
56084;BME280;41958;52.416;13.428;2023-02-13T08:22:37;103181.59;;;7.18;100.00
56084;BME280;41958;52.416;13.428;2023-02-13T08:25:03;103166.25;;;7.16;100.00
56084;BME280;41958;52.416;13.428;2023-02-13T08:27:29;103167.38;;;7.15;100.00
56084;BME280;41958;52.416;13.428;2023-02-13T08:29:55;103167.13;;;7.21;100.00
56084;BME280;41958;52.416;13.428;2023-02-13T08:32:21;103174.66;;;7.21;100.00
56084;BME280;41958;52.416;13.428;2023-02-13T08:34:47;103167.75;;;7.29;100.00
56084;BME280;41958;52.416;13.428;2023-02-13T08:37:12;103172.50;;;7.33;100.00
56084;BME280;41958;52.416;13.428;2023-02-13T08:39:37;103168.03;;;7.32;100.00
56084;BME280;41958;52.416;13.428;2023-02-13T08:42:02;103173.06;;;7.30;100.00
56084;BME280;41958;52.416;13.428;2023-02-13T08:44:28;103172.50;;;7.33;100.00
56084;BME280;41958;52.416;13.428;2023-02-13T08:46:53;103180.53;;;7.30;100.00
56084;BME280;41958;52.416;13.428;2023-02-13T08:49:18;103171.97;;;7.36;100.00
56084;BME280;41958;52.416;13.428;2023-02-13T08:51:44;103165.88;;;7.39;100.00
56084;BME280;41958;52.416;13.428;2023-02-13T08:54:09;103164.47;;;7.37;100.00
56084;BME280;41958;52.416;13.428;2023-02-13T08:56:34;103170.03;;;7.37;100.00
56084;BME280;41958;52.416;13.428;2023-02-13T08:59:00;103167.53;;;7.35;100.00
56084;BME280;41958;52.416;13.428;2023-02-13T09:01:25;103170.59;;;7.39;100.00
56084;BME280;41958;52.416;13.428;2023-02-13T09:03:50;103169.19;;;7.36;100.00
56084;BME280;41958;52.416;13.428;2023-02-13T09:06:16;103166.72;;;7.40;100.00
56084;BME280;41958;52.416;13.428;2023-02-13T09:08:41;103169.53;;;7.45;100.00
56084;BME280;41958;52.416;13.428;2023-02-13T09:11:06;103163.47;;;7.53;100.00
56084;BME280;41958;52.416;13.428;2023-02-13T09:13:32;103164.56;;;7.52;100.00
56084;BME280;41958;52.416;13.428;2023-02-13T09:15:59;103172.34;;;7.55;100.00
56084;BME280;41958;52.416;13.428;2023-02-13T09:18:25;103170.19;;;7.63;100.00
56084;BME280;41958;52.416;13.428;2023-02-13T09:20:56;103172.75;;;7.69;100.00
56084;BME280;41958;52.416;13.428;2023-02-13T09:23:22;103176.59;;;7.63;100.00
56084;BME280;41958;52.416;13.428;2023-02-13T09:25:47;103181.09;;;7.69;100.00
56084;BME280;41958;52.416;13.428;2023-02-13T09:28:12;103184.94;;;7.63;100.00
56084;BME280;41958;52.416;13.428;2023-02-13T09:30:37;103179.16;;;7.75;100.00
56084;BME280;41958;52.416;13.428;2023-02-13T09:33:09;103184.75;;;7.85;100.00
56084;BME280;41958;52.416;13.428;2023-02-13T09:35:34;103182.84;;;7.86;100.00
56084;BME280;41958;52.416;13.428;2023-02-13T09:38:00;103183.91;;;7.80;100.00
56084;BME280;41958;52.416;13.428;2023-02-13T09:40:29;103188.88;;;7.72;100.00
56084;BME280;41958;52.416;13.428;2023-02-13T09:43:09;103188.94;;;7.78;100.00
56084;BME280;41958;52.416;13.428;2023-02-13T09:45:36;103187.00;;;7.83;100.00
56084;BME280;41958;52.416;13.428;2023-02-13T09:48:03;103184.50;;;7.82;100.00
56084;BME280;41958;52.416;13.428;2023-02-13T09:50:30;103189.25;;;7.91;99.96
56084;BME280;41958;52.416;13.428;2023-02-13T09:52:58;103200.19;;;8.03;100.00
56084;BME280;41958;52.416;13.428;2023-02-13T09:55:49;103181.25;;;8.05;99.83
56084;BME280;41958;52.416;13.428;2023-02-13T09:58:35;103174.84;;;8.05;99.74
56084;BME280;41958;52.416;13.428;2023-02-13T10:01:05;103186.78;;;7.95;99.95
56084;BME280;41958;52.416;13.428;2023-02-13T10:03:43;103178.19;;;8.02;100.00
56084;BME280;41958;52.416;13.428;2023-02-13T10:06:18;103171.75;;;8.01;100.00
56084;BME280;41958;52.416;13.428;2023-02-13T10:08:57;103183.22;;;8.15;99.17
56084;BME280;41958;52.416;13.428;2023-02-13T10:11:44;103176.19;;;7.97;100.00
56084;BME280;41958;52.416;13.428;2023-02-13T10:14:31;103170.41;;;8.09;99.95
56084;BME280;41958;52.416;13.428;2023-02-13T10:17:05;103174.03;;;8.15;100.00
56084;BME280;41958;52.416;13.428;2023-02-13T10:19:40;103185.22;;;8.25;99.08
56084;BME280;41958;52.416;13.428;2023-02-13T10:22:13;103187.16;;;8.19;99.00
56084;BME280;41958;52.416;13.428;2023-02-13T10:27:19;103175.72;;;8.26;99.38
56084;BME280;41958;52.416;13.428;2023-02-13T10:29:58;103184.34;;;8.14;100.00
56084;BME280;41958;52.416;13.428;2023-02-13T10:33:15;103169.84;;;8.12;100.00
56084;BME280;41958;52.416;13.428;2023-02-13T10:35:58;103174.34;;;8.23;100.00
56084;BME280;41958;52.416;13.428;2023-02-13T10:38:28;103169.06;;;8.32;99.94
56084;BME280;41958;52.416;13.428;2023-02-13T10:41:04;103171.59;;;8.34;99.35
56084;BME280;41958;52.416;13.428;2023-02-13T10:43:38;103162.09;;;8.24;98.81
56084;BME280;41958;52.416;13.428;2023-02-13T10:46:10;103167.47;;;8.47;98.70
56084;BME280;41958;52.416;13.428;2023-02-13T10:49:02;103162.44;;;8.49;97.95
56084;BME280;41958;52.416;13.428;2023-02-13T10:54:31;103153.56;;;8.67;95.72
56084;BME280;41958;52.416;13.428;2023-02-13T10:57:14;103142.66;;;8.55;95.21
56084;BME280;41958;52.416;13.428;2023-02-13T11:00:09;103154.94;;;8.59;96.02
56084;BME280;41958;52.416;13.428;2023-02-13T11:02:38;103148.81;;;8.52;95.77
56084;BME280;41958;52.416;13.428;2023-02-13T11:08:00;103131.22;;;8.41;95.01
56084;BME280;41958;52.416;13.428;2023-02-13T11:10:27;103152.72;;;8.67;95.99
56084;BME280;41958;52.416;13.428;2023-02-13T11:12:52;103149.91;;;8.67;94.66
56084;BME280;41958;52.416;13.428;2023-02-13T11:15:30;103148.53;;;8.54;96.59
56084;BME280;41958;52.416;13.428;2023-02-13T11:17:59;103149.03;;;8.40;98.10
56084;BME280;41958;52.416;13.428;2023-02-13T11:20:30;103144.56;;;8.29;97.19
56084;BME280;41958;52.416;13.428;2023-02-13T11:26:06;103139.47;;;8.05;98.71
56084;BME280;41958;52.416;13.428;2023-02-13T11:28:43;103135.84;;;8.00;98.65
56084;BME280;41958;52.416;13.428;2023-02-13T11:31:28;103137.78;;;7.99;98.51
56084;BME280;41958;52.416;13.428;2023-02-13T11:33:55;103141.44;;;8.15;98.27
56084;BME280;41958;52.416;13.428;2023-02-13T11:36:30;103142.84;;;8.18;97.35
56084;BME280;41958;52.416;13.428;2023-02-13T11:39:06;103138.16;;;8.34;97.35
56084;BME280;41958;52.416;13.428;2023-02-13T11:41:42;103131.53;;;8.45;96.80
56084;BME280;41958;52.416;13.428;2023-02-13T11:44:26;103135.38;;;8.34;96.87
56084;BME280;41958;52.416;13.428;2023-02-13T11:46:54;103122.59;;;8.58;95.62
56084;BME280;41958;52.416;13.428;2023-02-13T11:49:22;103141.56;;;8.56;95.31
56084;BME280;41958;52.416;13.428;2023-02-13T11:51:54;103128.19;;;8.53;94.11
56084;BME280;41958;52.416;13.428;2023-02-13T11:56:57;103125.69;;;8.47;93.85
56084;BME280;41958;52.416;13.428;2023-02-13T11:59:24;103121.22;;;8.46;94.30
56084;BME280;41958;52.416;13.428;2023-02-13T12:02:12;103128.47;;;8.57;94.00
56084;BME280;41958;52.416;13.428;2023-02-13T12:04:38;103121.75;;;8.53;93.29
56084;BME280;41958;52.416;13.428;2023-02-13T12:07:23;103121.22;;;8.61;92.50
56084;BME280;41958;52.416;13.428;2023-02-13T12:09:58;103120.94;;;8.47;92.52
56084;BME280;41958;52.416;13.428;2023-02-13T12:12:36;103124.00;;;8.56;92.81
56084;BME280;41958;52.416;13.428;2023-02-13T12:15:15;103118.41;;;8.61;91.36
56084;BME280;41958;52.416;13.428;2023-02-13T12:17:43;103113.72;;;8.62;90.80
56084;BME280;41958;52.416;13.428;2023-02-13T12:20:14;103124.56;;;8.53;91.78
56084;BME280;41958;52.416;13.428;2023-02-13T12:23:05;103120.94;;;8.68;90.91
56084;BME280;41958;52.416;13.428;2023-02-13T12:25:42;103123.75;;;8.57;89.99
56084;BME280;41958;52.416;13.428;2023-02-13T12:28:15;103121.50;;;8.59;90.21
56084;BME280;41958;52.416;13.428;2023-02-13T12:30:54;103118.41;;;8.56;90.29
56084;BME280;41958;52.416;13.428;2023-02-13T12:41:54;103114.25;;;8.64;89.49
56084;BME280;41958;52.416;13.428;2023-02-13T12:47:17;103119.81;;;8.58;86.77
56084;BME280;41958;52.416;13.428;2023-02-13T12:52:41;103110.34;;;8.54;87.34
56084;BME280;41958;52.416;13.428;2023-02-13T12:55:25;103108.97;;;8.67;87.57
56084;BME280;41958;52.416;13.428;2023-02-13T12:58:07;103115.91;;;8.54;87.83
56084;BME280;41958;52.416;13.428;2023-02-13T13:01:01;103112.31;;;8.64;86.43
56084;BME280;41958;52.416;13.428;2023-02-13T13:03:55;103111.75;;;8.67;85.87
56084;BME280;41958;52.416;13.428;2023-02-13T13:12:23;103104.50;;;8.61;84.64
56084;BME280;41958;52.416;13.428;2023-02-13T13:15:04;103109.78;;;8.73;84.69
56084;BME280;41958;52.416;13.428;2023-02-13T13:18:02;103108.97;;;8.72;84.85
56084;BME280;41958;52.416;13.428;2023-02-13T13:20:42;103103.38;;;8.52;84.14
56084;BME280;41958;52.416;13.428;2023-02-13T13:23:32;103107.84;;;8.58;83.57
56084;BME280;41958;52.416;13.428;2023-02-13T13:26:34;103113.97;;;8.70;84.56
56084;BME280;41958;52.416;13.428;2023-02-13T13:29:05;103109.25;;;8.71;84.78
56084;BME280;41958;52.416;13.428;2023-02-13T13:31:34;103107.56;;;8.70;84.74
56084;BME280;41958;52.416;13.428;2023-02-13T13:34:03;103111.19;;;8.70;84.12
56084;BME280;41958;52.416;13.428;2023-02-13T13:37:50;103107.81;;;8.48;85.45
56084;BME280;41958;52.416;13.428;2023-02-13T13:45:13;103105.06;;;8.58;85.37
56084;BME280;41958;52.416;13.428;2023-02-13T13:47:49;103109.81;;;8.57;85.81
56084;BME280;41958;52.416;13.428;2023-02-13T13:50:24;103107.28;;;8.61;84.86
56084;BME280;41958;52.416;13.428;2023-02-13T13:53:17;103098.63;;;8.63;85.80
56084;BME280;41958;52.416;13.428;2023-02-13T13:58:43;103107.28;;;8.66;84.44
56084;BME280;41958;52.416;13.428;2023-02-13T14:01:30;103109.22;;;8.76;84.68
56084;BME280;41958;52.416;13.428;2023-02-13T14:04:02;103105.88;;;8.58;84.79
56084;BME280;41958;52.416;13.428;2023-02-13T14:09:38;103096.41;;;8.59;85.26
56084;BME280;41958;52.416;13.428;2023-02-13T14:14:49;103091.13;;;8.63;85.68
56084;BME280;41958;52.416;13.428;2023-02-13T14:17:15;103088.34;;;8.68;85.71
56084;BME280;41958;52.416;13.428;2023-02-13T14:19:46;103087.19;;;8.69;85.11